Remus, Michigan
Current Conditions -  °F | °C
As of 6:34 AM on Thursday 18 Dec 2014 (Local Time) from KRQB Reporting Station
Overcast Overcast  
Wind Chill: 25°   Ceiling: 1700
Heat Index: 30°   Visibility: 10mi
Dew Point: 28°   Wind: 5mph
Humidity: 92%   Direction: 320°NW
Pressure: 30.17"   Gusts: NA
Location:  43.6°N, 85.14°W
Report Text: KRQB 181134Z AUTO 32004KT 10SM SCT009 OVC017 M01/M02 A3017 RMK AO2 T10121024
Loading
Personal Weather Stations






























Interactive Weather Map New forecast layout! Learn more

10-Day Weather Forecast

Advertisements
Track Severe Weather on mobile